Time;durP1;ratioP1;P1;durP2;ratioP2;P2;SDS_P1;SDS_P2;PMS_P1;PMS_P2;Temp;Humidity;BMP_temperature;BMP_pressure;BME280_temperature;BME280_humidity;BME280_pressure;Samples;Min_cycle;Max_cycle;Signal;HPM_P1;HPM_P2
2022/05/31 00:00:41;;;;;;;6.35;3.33;;;16.70;99.90;;;;;;5041584;28;20026;-84
2022/05/31 00:03:07;;;;;;;8.25;3.30;;;16.70;99.90;;;;;;5041550;28;20013;-82
2022/05/31 00:05:33;;;;;;;6.88;3.35;;;16.60;99.90;;;;;;5039468;28;20013;-83
2022/05/31 00:07:59;;;;;;;5.57;3.05;;;16.60;99.90;;;;;;5037779;28;20021;-84
2022/05/31 00:10:26;;;;;;;5.38;3.17;;;16.60;99.90;;;;;;5041268;28;20090;-85
2022/05/31 00:13:02;;;;;;;5.32;2.97;;;16.60;99.90;;;;;;5025469;28;20021;-85
2022/05/31 00:15:28;;;;;;;5.68;3.35;;;16.50;99.90;;;;;;5033303;28;20535;-85
2022/05/31 00:17:54;;;;;;;7.95;4.45;;;16.50;99.90;;;;;;5039104;28;20113;-84
2022/05/31 00:20:20;;;;;;;6.53;3.40;;;16.50;99.90;;;;;;5020623;28;20029;-85
2022/05/31 00:22:47;;;;;;;4.93;2.90;;;16.60;99.90;;;;;;5025937;28;20029;-86
2022/05/31 00:25:17;;;;;;;5.97;3.10;;;16.60;99.90;;;;;;5040784;28;20063;-85
2022/05/31 00:27:43;;;;;;;6.18;3.20;;;16.60;99.90;;;;;;5022813;28;20026;-85
2022/05/31 00:30:11;;;;;;;4.53;3.08;;;16.60;99.90;;;;;;5036678;28;20033;-84
2022/05/31 00:32:41;;;;;;;6.80;3.47;;;16.70;99.90;;;;;;5029284;28;20707;-83
2022/05/31 00:35:31;;;;;;;5.88;3.30;;;16.70;99.90;;;;;;5024557;28;20029;-83
2022/05/31 00:37:58;;;;;;;8.18;3.75;;;16.70;99.90;;;;;;5033343;28;20021;-84
2022/05/31 00:40:27;;;;;;;6.03;3.40;;;16.80;99.90;;;;;;5038772;28;20071;-84
2022/05/31 00:43:00;;;;;;;5.95;2.90;;;16.80;99.90;;;;;;5037044;28;20018;-84
2022/05/31 00:45:49;;;;;;;4.82;3.15;;;16.80;99.90;;;;;;5018758;28;20953;-83
2022/05/31 00:48:20;;;;;;;4.07;3.35;;;16.80;99.90;;;;;;5035931;28;20562;-83
2022/05/31 00:50:53;;;;;;;7.65;3.67;;;16.90;99.90;;;;;;5040009;28;20038;-84
2022/05/31 00:53:25;;;;;;;7.65;3.45;;;16.90;99.90;;;;;;5021210;28;20042;-83
2022/05/31 00:55:56;;;;;;;7.97;3.47;;;16.90;99.90;;;;;;5018479;28;20026;-84
2022/05/31 00:58:34;;;;;;;4.97;3.17;;;16.90;99.90;;;;;;5026965;28;20052;-83
2022/05/31 01:01:06;;;;;;;4.65;3.10;;;16.90;99.90;;;;;;5013872;28;20026;-81
2022/05/31 01:03:36;;;;;;;6.25;3.35;;;16.90;99.90;;;;;;5024888;28;20615;-83
2022/05/31 01:06:02;;;;;;;5.00;3.40;;;16.90;99.90;;;;;;5020300;28;20025;-84
2022/05/31 01:08:28;;;;;;;7.60;3.58;;;16.90;99.90;;;;;;5024212;28;20025;-83
2022/05/31 01:10:54;;;;;;;6.78;3.28;;;16.90;99.90;;;;;;5023314;28;20025;-81
2022/05/31 01:13:21;;;;;;;4.13;2.92;;;16.80;99.90;;;;;;5025514;28;20373;-82
2022/05/31 01:15:48;;;;;;;6.60;3.20;;;16.80;99.90;;;;;;5021808;28;20029;-83
2022/05/31 01:18:17;;;;;;;3.90;3.13;;;16.80;99.90;;;;;;5023439;28;20551;-83
2022/05/31 01:20:42;;;;;;;3.72;2.90;;;16.80;99.90;;;;;;5019313;28;20029;-84
2022/05/31 01:23:16;;;;;;;4.20;3.20;;;16.90;99.90;;;;;;5025552;28;20386;-84
2022/05/31 01:25:47;;;;;;;5.38;3.05;;;16.80;99.90;;;;;;5027641;28;20033;-84
2022/05/31 01:28:22;;;;;;;5.50;3.23;;;16.80;99.90;;;;;;5025239;28;20105;-83
2022/05/31 01:31:14;;;;;;;4.22;3.00;;;16.80;99.90;;;;;;5018920;28;20041;-83
2022/05/31 01:33:51;;;;;;;7.10;3.83;;;16.70;99.90;;;;;;5011857;28;20079;-83
2022/05/31 01:36:22;;;;;;;4.05;2.60;;;16.80;99.90;;;;;;5026182;28;20021;-84
2022/05/31 01:38:51;;;;;;;3.80;3.13;;;16.70;99.90;;;;;;5024890;28;20048;-83
2022/05/31 01:41:26;;;;;;;4.53;2.90;;;16.80;99.90;;;;;;5022507;28;20026;-83
2022/05/31 01:43:55;;;;;;;8.10;2.83;;;16.80;99.90;;;;;;5024153;28;20053;-84
2022/05/31 01:46:28;;;;;;;6.60;3.10;;;16.80;99.90;;;;;;5022948;28;20072;-84
2022/05/31 01:48:56;;;;;;;3.00;2.45;;;16.80;99.90;;;;;;5019640;28;20061;-84
2022/05/31 01:51:22;;;;;;;2.90;2.58;;;16.80;99.90;;;;;;5026970;28;20136;-84
2022/05/31 01:53:49;;;;;;;4.93;2.90;;;16.90;99.90;;;;;;5044268;28;20476;-83
2022/05/31 01:56:21;;;;;;;4.18;2.88;;;16.90;99.90;;;;;;5044612;28;20036;-83
2022/05/31 01:58:49;;;;;;;6.45;3.25;;;16.90;99.90;;;;;;5016535;28;20032;-85
2022/05/31 02:01:15;;;;;;;4.85;3.00;;;16.90;99.90;;;;;;5040594;28;20295;-85
2022/05/31 02:03:43;;;;;;;4.32;2.92;;;16.90;99.90;;;;;;5033903;28;20372;-85
2022/05/31 02:06:31;;;;;;;5.13;2.78;;;16.80;99.90;;;;;;5027509;28;20028;-82
2022/05/31 02:08:57;;;;;;;7.00;2.83;;;16.80;99.90;;;;;;5036723;28;20376;-85
2022/05/31 02:11:24;;;;;;;4.45;2.80;;;16.90;99.90;;;;;;5045008;28;20045;-84
2022/05/31 02:13:50;;;;;;;3.90;2.50;;;16.90;99.90;;;;;;5042813;28;20032;-84
2022/05/31 02:16:16;;;;;;;5.22;2.88;;;16.90;99.90;;;;;;5044405;28;20252;-84
2022/05/31 02:21:35;;;;;;;3.38;3.00;;;16.90;99.90;;;;;;5045461;28;20041;-83
2022/05/31 02:24:03;;;;;;;6.22;2.88;;;17.00;99.90;;;;;;5024433;28;20017;-83
2022/05/31 02:26:30;;;;;;;3.17;2.70;;;17.00;99.90;;;;;;5044066;28;20096;-83
2022/05/31 02:29:00;;;;;;;4.38;2.63;;;17.00;99.90;;;;;;5042790;28;20166;-83
2022/05/31 02:31:31;;;;;;;3.20;2.10;;;17.00;99.90;;;;;;5039675;28;20037;-83
2022/05/31 02:34:00;;;;;;;3.65;2.22;;;17.00;99.90;;;;;;5044790;28;20515;-83
2022/05/31 02:36:26;;;;;;;4.10;2.40;;;17.00;99.90;;;;;;5045066;28;20025;-83
2022/05/31 02:38:53;;;;;;;4.10;2.63;;;17.00;99.90;;;;;;5043067;28;20029;-83
2022/05/31 02:41:27;;;;;;;3.90;2.80;;;17.10;99.90;;;;;;5024908;28;20033;-83
2022/05/31 02:43:52;;;;;;;5.20;2.30;;;17.00;99.90;;;;;;5042950;28;20048;-83
2022/05/31 02:46:18;;;;;;;5.18;2.70;;;17.10;99.90;;;;;;5041566;28;20107;-83
2022/05/31 02:48:44;;;;;;;3.85;2.50;;;17.10;99.90;;;;;;5041130;28;20028;-82
2022/05/31 02:51:10;;;;;;;3.47;2.53;;;17.10;99.90;;;;;;5042415;28;20032;-82
2022/05/31 02:53:37;;;;;;;3.78;2.05;;;17.10;99.90;;;;;;5044501;28;20028;-83
2022/05/31 02:56:03;;;;;;;3.78;2.63;;;17.10;99.90;;;;;;5038339;28;20017;-83
2022/05/31 02:58:29;;;;;;;3.72;2.30;;;17.10;99.90;;;;;;5025943;28;20434;-82
2022/05/31 03:00:55;;;;;;;4.63;2.45;;;17.10;99.90;;;;;;5036013;28;20023;-83
2022/05/31 03:03:24;;;;;;;4.00;2.63;;;17.10;99.90;;;;;;5045088;28;20052;-83
2022/05/31 03:05:51;;;;;;;3.05;2.22;;;17.10;99.90;;;;;;5040355;28;20104;-83
2022/05/31 03:08:18;;;;;;;3.50;2.10;;;17.10;99.90;;;;;;5043356;28;20428;-84
2022/05/31 03:10:54;;;;;;;3.92;2.22;;;17.10;99.90;;;;;;5037306;28;20037;-83
2022/05/31 03:13:24;;;;;;;5.22;2.30;;;17.10;99.90;;;;;;5040203;28;20068;-83
2022/05/31 03:15:53;;;;;;;5.47;2.30;;;17.10;99.90;;;;;;5036709;28;20112;-83
2022/05/31 03:18:35;;;;;;;3.63;2.42;;;17.10;99.90;;;;;;5043307;28;20013;-83
2022/05/31 03:21:31;;;;;;;8.68;2.03;;;17.10;99.90;;;;;;5037112;28;20025;-83
2022/05/31 03:24:09;;;;;;;6.00;2.20;;;17.10;99.90;;;;;;5029087;28;20071;-83
2022/05/31 03:26:39;;;;;;;5.10;2.10;;;17.20;99.90;;;;;;5043833;28;20029;-83
2022/05/31 03:29:05;;;;;;;5.25;2.00;;;17.20;99.90;;;;;;5040452;28;20128;-83
2022/05/31 03:31:31;;;;;;;2.40;2.20;;;17.20;99.90;;;;;;5036781;28;20044;-83
2022/05/31 03:33:58;;;;;;;3.42;2.08;;;17.20;99.90;;;;;;5022386;28;20021;-82
2022/05/31 03:36:50;;;;;;;2.10;2.00;;;17.20;99.90;;;;;;5043440;28;20504;-84
2022/05/31 03:39:16;;;;;;;2.30;1.90;;;17.20;99.90;;;;;;5041087;28;20021;-85
2022/05/31 03:41:41;;;;;;;6.47;2.78;;;17.10;99.90;;;;;;5044336;28;20025;-85
2022/05/31 03:44:09;;;;;;;2.63;1.83;;;17.20;99.90;;;;;;5042173;28;20017;-85
2022/05/31 03:46:35;;;;;;;3.15;2.05;;;17.20;99.90;;;;;;5040539;28;20053;-84
2022/05/31 03:49:01;;;;;;;3.75;2.20;;;17.20;99.90;;;;;;5040352;28;20099;-85
2022/05/31 03:51:26;;;;;;;3.13;2.42;;;17.10;99.90;;;;;;5043389;28;20132;-86
2022/05/31 03:53:52;;;;;;;6.22;2.40;;;17.20;99.90;;;;;;5041890;28;20446;-84
2022/05/31 03:56:18;;;;;;;8.13;2.55;;;17.10;99.90;;;;;;5023687;28;20021;-84
2022/05/31 03:58:45;;;;;;;4.00;2.85;;;17.20;99.90;;;;;;5042709;28;20045;-84
2022/05/31 04:01:11;;;;;;;2.28;2.00;;;17.20;99.90;;;;;;5034993;28;20029;-85
2022/05/31 04:03:36;;;;;;;3.58;2.35;;;17.20;99.90;;;;;;5037539;28;20040;-85
2022/05/31 04:06:02;;;;;;;3.47;2.45;;;17.20;99.90;;;;;;5027272;28;20495;-85
2022/05/31 04:08:28;;;;;;;3.80;2.40;;;17.20;99.90;;;;;;5041006;28;20025;-86
2022/05/31 04:10:54;;;;;;;6.45;2.70;;;17.20;99.90;;;;;;5040018;28;20033;-86
2022/05/31 04:13:22;;;;;;;6.30;2.45;;;17.30;99.90;;;;;;5042743;28;20469;-86
2022/05/31 04:15:48;;;;;;;8.73;2.80;;;17.30;99.90;;;;;;5039853;28;20502;-85
2022/05/31 04:18:14;;;;;;;5.38;2.88;;;17.30;99.90;;;;;;5020208;28;20021;-86
2022/05/31 04:20:42;;;;;;;5.95;3.00;;;17.30;99.90;;;;;;5024717;28;20029;-86
2022/05/31 04:26:05;;;;;;;5.50;2.63;;;17.30;99.90;;;;;;5039966;28;20318;-85
2022/05/31 04:28:31;;;;;;;5.25;2.97;;;17.30;99.90;;;;;;5012048;28;20025;-85
2022/05/31 04:30:57;;;;;;;4.40;2.92;;;17.30;99.90;;;;;;5042778;28;20041;-86
2022/05/31 04:33:23;;;;;;;4.28;2.80;;;17.40;99.90;;;;;;5041490;28;20031;-86
2022/05/31 04:35:58;;;;;;;3.58;2.95;;;17.40;99.90;;;;;;5047593;28;20534;-86
2022/05/31 04:38:23;;;;;;;3.70;3.20;;;17.40;99.90;;;;;;5028435;28;20021;-86
2022/05/31 04:40:49;;;;;;;4.97;3.28;;;17.40;99.90;;;;;;5038461;28;20021;-85
2022/05/31 04:43:15;;;;;;;7.78;3.33;;;17.40;99.90;;;;;;5023934;28;20028;-86
2022/05/31 04:45:41;;;;;;;5.32;3.88;;;17.40;99.90;;;;;;5046269;28;20439;-85
2022/05/31 04:48:06;;;;;;;6.88;3.72;;;17.50;99.90;;;;;;5042022;28;20429;-86
2022/05/31 04:50:32;;;;;;;6.55;3.42;;;17.50;99.90;;;;;;5042671;28;20041;-85
2022/05/31 04:52:58;;;;;;;11.00;3.67;;;17.50;99.90;;;;;;5046122;28;20033;-85
2022/05/31 04:55:23;;;;;;;7.53;3.85;;;17.60;99.90;;;;;;5023646;28;20022;-87
2022/05/31 04:57:49;;;;;;;7.15;3.95;;;17.60;99.90;;;;;;5039935;28;20484;-85
2022/05/31 05:00:15;;;;;;;5.60;3.60;;;17.60;99.90;;;;;;5040263;28;20030;-85
2022/05/31 05:02:42;;;;;;;8.35;4.18;;;17.60;99.90;;;;;;5041068;28;20021;-85
2022/05/31 05:05:08;;;;;;;4.70;3.70;;;17.60;99.90;;;;;;5041568;28;20033;-85
2022/05/31 05:07:34;;;;;;;7.18;4.00;;;17.60;99.90;;;;;;5040776;28;20021;-84
2022/05/31 05:09:59;;;;;;;5.85;4.10;;;17.60;99.90;;;;;;5023722;28;20032;-85
2022/05/31 05:12:25;;;;;;;9.88;5.13;;;17.60;99.90;;;;;;5041006;28;20032;-85
2022/05/31 05:14:51;;;;;;;7.20;4.43;;;17.70;99.90;;;;;;5045336;28;20036;-85
2022/05/31 05:17:16;;;;;;;7.40;5.00;;;17.80;99.90;;;;;;5022707;28;20060;-86
2022/05/31 05:19:42;;;;;;;6.82;4.85;;;17.90;99.90;;;;;;5045312;28;20033;-84
2022/05/31 05:22:08;;;;;;;6.72;4.40;;;18.10;99.90;;;;;;5048271;28;20386;-85
2022/05/31 05:24:33;;;;;;;7.00;4.60;;;18.20;99.90;;;;;;5040842;28;20459;-85
2022/05/31 05:27:00;;;;;;;6.95;4.40;;;18.30;99.90;;;;;;5038100;28;20021;-85
2022/05/31 05:32:10;;;;;;;7.25;4.60;;;18.50;99.90;;;;;;5036361;28;20109;-85
2022/05/31 05:34:36;;;;;;;9.20;4.70;;;18.60;99.90;;;;;;5043863;28;20025;-85
2022/05/31 05:37:01;;;;;;;8.50;5.30;;;18.60;99.90;;;;;;5047486;28;20040;-85
2022/05/31 05:39:27;;;;;;;7.10;4.82;;;18.50;99.90;;;;;;5040172;28;21319;-85
2022/05/31 05:41:53;;;;;;;7.88;5.22;;;18.50;99.90;;;;;;5046252;28;20364;-86
2022/05/31 05:44:18;;;;;;;5.72;4.70;;;18.50;99.90;;;;;;5040941;28;20033;-85
2022/05/31 05:46:44;;;;;;;9.98;6.00;;;18.50;99.90;;;;;;5029218;28;20021;-84
2022/05/31 05:49:10;;;;;;;10.18;6.13;;;18.50;99.90;;;;;;5023526;28;20028;-84
2022/05/31 05:51:36;;;;;;;14.27;6.28;;;18.50;99.90;;;;;;5045768;28;20045;-83
2022/05/31 05:54:02;;;;;;;14.88;5.97;;;18.60;99.90;;;;;;5042624;28;20025;-83
2022/05/31 05:56:29;;;;;;;12.05;5.80;;;18.60;99.90;;;;;;5023545;28;20021;-83
2022/05/31 05:58:55;;;;;;;8.35;5.60;;;18.60;99.90;;;;;;5043263;28;20503;-83
2022/05/31 06:01:30;;;;;;;9.30;6.03;;;18.70;99.90;;;;;;5042440;28;20017;-84
2022/05/31 06:04:06;;;;;;;11.27;6.18;;;18.70;99.90;;;;;;5045514;28;20040;-85
2022/05/31 06:06:34;;;;;;;11.38;5.72;;;18.80;99.90;;;;;;5038570;28;20083;-84
2022/05/31 06:09:17;;;;;;;10.40;6.00;;;18.80;99.90;;;;;;5042219;28;20051;-84
2022/05/31 06:11:55;;;;;;;9.10;5.65;;;18.90;99.90;;;;;;5039353;28;20120;-84
2022/05/31 06:14:30;;;;;;;8.63;5.95;;;19.00;99.90;;;;;;5042150;28;20542;-86
2022/05/31 06:17:00;;;;;;;8.55;5.20;;;19.10;99.90;;;;;;5018428;28;20032;-84
2022/05/31 06:19:30;;;;;;;6.78;4.82;;;19.20;99.90;;;;;;5016306;28;20501;-85
2022/05/31 06:21:56;;;;;;;10.35;5.88;;;19.30;99.90;;;;;;5043189;28;20033;-85
2022/05/31 06:24:23;;;;;;;10.23;5.32;;;19.40;99.90;;;;;;5034478;28;20029;-85
2022/05/31 06:26:49;;;;;;;8.52;5.43;;;19.50;99.90;;;;;;5035424;28;20028;-84
2022/05/31 06:29:15;;;;;;;10.73;5.03;;;19.60;99.90;;;;;;5037511;28;20025;-88
2022/05/31 06:31:41;;;;;;;8.45;5.05;;;19.80;99.90;;;;;;5034153;28;20033;-84
2022/05/31 06:34:06;;;;;;;9.93;4.53;;;19.80;99.90;;;;;;5037837;28;20373;-89
2022/05/31 06:36:32;;;;;;;8.57;4.60;;;20.00;99.90;;;;;;5021225;28;20025;-85
2022/05/31 06:38:58;;;;;;;9.45;4.88;;;20.20;99.90;;;;;;5039075;28;20082;-84
2022/05/31 06:41:24;;;;;;;6.50;4.22;;;20.40;99.90;;;;;;5033840;28;20032;-84
2022/05/31 06:43:49;;;;;;;15.35;4.80;;;20.50;99.90;;;;;;5040114;28;20076;-84
2022/05/31 06:46:15;;;;;;;7.55;4.93;;;20.60;99.90;;;;;;5038494;28;20041;-84
2022/05/31 06:48:41;;;;;;;7.00;4.80;;;20.60;99.90;;;;;;5027915;28;20018;-84
2022/05/31 06:51:10;;;;;;;9.18;5.00;;;20.60;99.90;;;;;;5035096;28;20051;-83
2022/05/31 06:58:52;;;;;;;7.63;4.38;;;20.80;99.90;;;;;;5031802;28;20022;-84
2022/05/31 07:01:19;;;;;;;7.90;4.45;;;21.00;99.90;;;;;;5034792;28;20432;-84
2022/05/31 07:03:45;;;;;;;6.70;4.07;;;21.10;99.90;;;;;;5038001;28;20216;-84
2022/05/31 07:06:11;;;;;;;6.70;3.95;;;21.20;99.90;;;;;;5037628;28;20079;-84
2022/05/31 07:08:37;;;;;;;6.50;4.05;;;21.20;99.90;;;;;;5019330;28;20021;-84
2022/05/31 07:11:05;;;;;;;5.93;4.32;;;21.20;99.90;;;;;;5034607;28;20546;-84
2022/05/31 07:13:31;;;;;;;9.82;4.43;;;21.30;99.90;;;;;;5032308;28;20014;-84
2022/05/31 07:16:00;;;;;;;12.10;4.85;;;21.30;99.90;;;;;;5034982;28;20051;-83
2022/05/31 07:18:25;;;;;;;7.72;4.53;;;21.30;99.90;;;;;;5018552;28;20026;-83
2022/05/31 07:20:51;;;;;;;7.13;4.55;;;21.30;99.90;;;;;;5035042;28;20017;-84
2022/05/31 07:23:17;;;;;;;7.03;4.85;;;21.30;99.90;;;;;;5037279;28;20044;-84
2022/05/31 07:25:43;;;;;;;8.25;4.82;;;21.20;99.90;;;;;;5035157;28;20087;-84
2022/05/31 07:28:09;;;;;;;11.90;4.90;;;21.30;99.90;;;;;;5018650;28;20017;-81
2022/05/31 07:30:35;;;;;;;12.18;5.10;;;21.40;99.90;;;;;;5033350;28;20510;-83
2022/05/31 07:33:00;;;;;;;11.75;4.40;;;21.50;99.90;;;;;;5026874;28;20045;-83
2022/05/31 07:35:27;;;;;;;11.90;5.00;;;21.60;99.90;;;;;;5034917;28;20021;-84
2022/05/31 07:37:53;;;;;;;17.58;4.82;;;21.50;99.90;;;;;;5036602;28;20014;-84
2022/05/31 07:40:19;;;;;;;9.98;4.63;;;21.50;99.90;;;;;;5015664;28;20080;-83
2022/05/31 07:42:44;;;;;;;9.10;4.78;;;21.50;99.90;;;;;;5021540;28;20029;-83
2022/05/31 07:45:11;;;;;;;8.90;4.53;;;21.50;99.90;;;;;;5035240;28;20388;-83
2022/05/31 07:47:37;;;;;;;11.63;5.13;;;21.60;99.90;;;;;;5017328;28;20136;-83
2022/05/31 07:50:03;;;;;;;9.20;4.30;;;21.80;99.90;;;;;;5033219;28;20048;-81
2022/05/31 07:52:29;;;;;;;9.85;4.72;;;21.90;99.90;;;;;;5036430;28;20090;-87
2022/05/31 07:54:55;;;;;;;14.68;4.57;;;22.00;99.90;;;;;;5044415;28;20088;-85
2022/05/31 08:00:05;;;;;;;9.18;4.70;;;22.10;99.90;;;;;;5039984;28;20028;-85
2022/05/31 08:02:31;;;;;;;9.65;4.93;;;22.00;99.90;;;;;;5018262;28;20108;-85
2022/05/31 08:04:56;;;;;;;9.63;5.10;;;22.10;99.90;;;;;;5040363;28;20122;-85
2022/05/31 08:07:22;;;;;;;11.95;5.15;;;22.10;99.90;;;;;;5047916;28;20412;-86
2022/05/31 08:09:48;;;;;;;14.07;4.78;;;22.20;99.90;;;;;;5026815;28;20057;-86
2022/05/31 08:12:13;;;;;;;10.80;4.93;;;22.30;99.90;;;;;;5026116;28;20030;-88
2022/05/31 08:14:39;;;;;;;11.40;4.40;;;22.40;99.90;;;;;;5038827;28;20029;-87
2022/05/31 08:17:06;;;;;;;9.68;4.80;;;22.60;99.90;;;;;;5038125;28;20056;-86
2022/05/31 08:19:32;;;;;;;9.85;4.95;;;22.70;99.90;;;;;;5038493;28;20052;-90
2022/05/31 08:21:58;;;;;;;9.27;4.15;;;22.50;99.90;;;;;;5040021;28;20049;-87
2022/05/31 08:24:24;;;;;;;8.48;4.40;;;22.50;99.90;;;;;;5036870;28;20044;-85
2022/05/31 08:26:50;;;;;;;7.75;4.47;;;22.50;99.90;;;;;;5036694;28;20554;-86
2022/05/31 08:29:17;;;;;;;5.25;4.10;;;22.70;99.90;;;;;;5041639;28;20476;-88
2022/05/31 08:31:43;;;;;;;5.53;4.05;;;22.80;99.90;;;;;;5038306;28;20159;-85
2022/05/31 08:34:09;;;;;;;12.48;4.88;;;22.70;99.90;;;;;;5036152;28;20025;-87
2022/05/31 08:36:35;;;;;;;13.32;4.25;;;22.80;99.90;;;;;;5037484;28;20112;-84
2022/05/31 08:39:02;;;;;;;11.60;5.35;;;22.90;99.90;;;;;;5038180;28;20108;-86
2022/05/31 08:41:48;;;;;;;10.70;4.72;;;22.80;99.90;;;;;;5039625;28;20029;-87
2022/05/31 08:44:28;;;;;;;12.43;4.55;;;22.60;99.90;;;;;;5037267;28;20025;-85
2022/05/31 08:47:14;;;;;;;9.43;4.32;;;22.50;99.90;;;;;;5037431;28;20484;-85
2022/05/31 08:53:02;;;;;;;8.88;4.90;;;22.40;99.90;;;;;;5045975;28;20119;-84
2022/05/31 08:58:32;;;;;;;9.68;4.85;;;22.20;99.90;;;;;;5036516;28;20036;-85
2022/05/31 09:00:59;;;;;;;14.02;4.88;;;22.10;99.90;;;;;;5041950;28;20017;-85
2022/05/31 09:03:45;;;;;;;13.93;4.80;;;21.90;99.90;;;;;;5038916;28;20049;-87
2022/05/31 09:06:14;;;;;;;9.73;4.57;;;21.90;99.90;;;;;;5038836;28;20053;-84
2022/05/31 09:08:56;;;;;;;12.40;4.97;;;21.80;99.90;;;;;;5020508;28;20026;-86
2022/05/31 09:11:32;;;;;;;11.38;4.88;;;21.90;99.90;;;;;;5024369;28;20039;-91
2022/05/31 09:14:07;;;;;;;10.05;4.30;;;22.00;99.90;;;;;;5033653;28;20025;-83
2022/05/31 09:16:38;;;;;;;10.90;4.38;;;22.20;99.90;;;;;;5039748;28;20514;-85
2022/05/31 09:19:07;;;;;;;7.95;4.18;;;21.90;99.90;;;;;;5034709;28;20113;-82
2022/05/31 09:21:53;;;;;;;9.55;4.30;;;21.80;99.90;;;;;;5037843;28;20017;-82
2022/05/31 09:24:21;;;;;;;16.70;4.88;;;21.80;99.90;;;;;;5032769;28;20022;-83
2022/05/31 09:27:03;;;;;;;10.35;5.00;;;21.80;99.90;;;;;;5037670;28;20018;-82
2022/05/31 09:29:52;;;;;;;13.00;4.60;;;21.60;99.90;;;;;;5046381;28;20161;-81
2022/05/31 09:32:49;;;;;;;14.30;4.68;;;21.60;99.90;;;;;;5015635;28;20285;-81
2022/05/31 09:35:46;;;;;;;12.68;4.18;;;21.80;99.90;;;;;;5018846;28;20030;-81
2022/05/31 09:38:18;;;;;;;9.52;4.80;;;21.80;99.90;;;;;;5038573;28;20013;-81
2022/05/31 09:40:50;;;;;;;8.52;4.72;;;21.70;99.90;;;;;;5036401;28;20033;-81
2022/05/31 09:43:35;;;;;;;10.38;4.18;;;21.60;99.90;;;;;;5035898;28;20029;-80
2022/05/31 09:46:08;;;;;;;10.55;4.78;;;21.90;99.90;;;;;;5018904;28;20032;-82
2022/05/31 09:48:46;;;;;;;10.85;4.78;;;22.10;99.90;;;;;;5038301;28;20036;-81
2022/05/31 09:51:36;;;;;;;21.27;5.60;;;22.20;99.90;;;;;;5038695;28;20038;-81
2022/05/31 09:57:06;;;;;;;10.57;4.63;;;21.80;99.90;;;;;;5044536;28;20041;-81
2022/05/31 09:59:35;;;;;;;11.25;4.57;;;22.00;99.90;;;;;;5021554;28;20017;-82
2022/05/31 10:02:20;;;;;;;7.40;4.00;;;22.20;99.90;;;;;;5044137;28;20068;-82
2022/05/31 10:04:48;;;;;;;9.63;4.28;;;22.30;99.90;;;;;;5040640;28;20053;-80
2022/05/31 10:07:33;;;;;;;9.95;4.75;;;22.00;99.90;;;;;;5038173;28;20484;-81
2022/05/31 10:10:24;;;;;;;11.05;4.65;;;22.20;99.90;;;;;;5042626;28;20052;-80
2022/05/31 10:12:54;;;;;;;12.60;4.70;;;22.40;99.90;;;;;;5019720;28;20037;-80
2022/05/31 10:15:40;;;;;;;13.15;4.47;;;22.60;99.90;;;;;;5044019;28;20055;-82
2022/05/31 10:18:08;;;;;;;10.88;4.50;;;22.60;99.90;;;;;;5024997;28;20027;-81
2022/05/31 10:20:34;;;;;;;7.32;4.50;;;22.30;99.90;;;;;;5043556;28;20021;-81
2022/05/31 10:23:13;;;;;;;10.10;4.63;;;22.30;99.90;;;;;;5045849;28;20025;-80
2022/05/31 10:25:41;;;;;;;10.30;4.32;;;22.20;99.90;;;;;;5042008;28;20022;-81
2022/05/31 10:28:12;;;;;;;13.30;4.65;;;22.10;99.90;;;;;;5042720;28;20032;-82
2022/05/31 10:30:39;;;;;;;13.10;4.32;;;21.90;99.90;;;;;;5042474;28;20033;-81
2022/05/31 10:33:19;;;;;;;7.88;4.07;;;21.90;99.90;;;;;;5047283;28;20021;-82
2022/05/31 10:35:46;;;;;;;7.70;3.95;;;22.10;99.90;;;;;;5042031;28;20104;-83
2022/05/31 10:38:18;;;;;;;7.65;4.22;;;22.40;99.90;;;;;;5039929;28;20547;-82
2022/05/31 10:40:57;;;;;;;7.05;3.88;;;22.10;99.90;;;;;;5039839;28;20034;-82
2022/05/31 10:43:35;;;;;;;10.95;3.72;;;22.00;99.90;;;;;;5042113;28;20062;-82
2022/05/31 10:46:14;;;;;;;8.40;3.53;;;21.80;99.90;;;;;;5032873;28;20412;-82
2022/05/31 10:48:49;;;;;;;6.43;3.20;;;21.90;99.90;;;;;;5045481;28;20025;-82
2022/05/31 10:51:27;;;;;;;6.57;3.22;;;21.90;99.90;;;;;;5042189;28;20056;-81
2022/05/31 10:54:30;;;;;;;10.10;3.10;;;22.10;99.90;;;;;;5016914;28;20529;-81
2022/05/31 10:56:58;;;;;;;;;;;22.00;99.90;;;;;;5046317;28;20082;-82
2022/05/31 10:59:33;;;;;;;15.88;3.88;;;22.20;99.90;;;;;;5043535;28;20337;-82
2022/05/31 11:02:29;;;;;;;5.18;3.35;;;22.20;99.90;;;;;;5017985;28;20022;-82
2022/05/31 11:05:14;;;;;;;7.32;3.08;;;22.30;99.90;;;;;;5041708;28;20016;-82
2022/05/31 11:14:29;;;;;;;7.35;2.97;;;22.40;99.90;;;;;;4961387;28;20033;-81
2022/05/31 11:17:07;;;;;;;8.30;3.00;;;22.40;99.90;;;;;;4941542;29;20031;-81
2022/05/31 11:19:33;;;;;;;7.90;3.35;;;22.20;99.90;;;;;;5018582;28;20065;-81
2022/05/31 11:22:26;;;;;;;5.32;3.22;;;22.60;99.90;;;;;;5045967;28;20051;-81
2022/05/31 11:25:06;;;;;;;6.03;3.13;;;22.50;99.90;;;;;;5040360;28;20032;-81
2022/05/31 11:27:41;;;;;;;9.20;2.83;;;22.60;99.90;;;;;;5038401;28;20025;-81
2022/05/31 11:30:21;;;;;;;8.75;2.80;;;22.80;99.90;;;;;;5034059;28;20540;-81
2022/05/31 11:33:17;;;;;;;5.78;2.80;;;23.10;99.90;;;;;;5037090;28;20071;-81
2022/05/31 11:36:08;;;;;;;4.25;2.90;;;22.70;99.90;;;;;;5037918;28;20029;-82
2022/05/31 11:38:40;;;;;;;5.57;2.60;;;22.50;99.90;;;;;;5039339;28;20471;-80
2022/05/31 11:41:24;;;;;;;12.52;3.22;;;22.40;99.90;;;;;;5038146;28;20044;-82
2022/05/31 11:44:08;;;;;;;5.97;2.80;;;22.50;99.90;;;;;;5029811;28;20026;-81
2022/05/31 11:46:37;;;;;;;7.10;3.05;;;22.60;99.90;;;;;;5009028;28;20124;-83
2022/05/31 11:49:07;;;;;;;7.95;3.33;;;22.90;99.90;;;;;;5036895;28;20032;-81
2022/05/31 11:51:44;;;;;;;7.68;3.60;;;23.00;99.90;;;;;;5037526;28;20492;-81
2022/05/31 11:54:24;;;;;;;14.13;3.97;;;23.00;99.90;;;;;;5036048;28;20021;-81
2022/05/31 11:56:56;;;;;;;9.40;3.40;;;22.70;99.90;;;;;;5012379;28;20021;-83
2022/05/31 11:59:25;;;;;;;7.13;2.80;;;22.90;99.90;;;;;;5038077;28;20035;-81
2022/05/31 12:02:17;;;;;;;5.20;2.92;;;24.80;99.90;;;;;;5032029;28;20272;-82
2022/05/31 12:04:54;;;;;;;6.63;2.60;;;28.00;99.90;;;;;;5035748;28;20033;-81
2022/05/31 12:07:29;;;;;;;6.50;2.60;;;29.20;99.90;;;;;;5016701;28;20033;-82
2022/05/31 12:10:17;;;;;;;6.53;3.35;;;30.80;99.90;;;;;;5037487;28;20045;-81
2022/05/31 12:12:45;;;;;;;10.57;2.70;;;31.60;99.90;;;;;;5037435;28;20441;-82
2022/05/31 12:15:30;;;;;;;6.45;2.80;;;31.80;99.90;;;;;;5039780;28;20392;-81
2022/05/31 12:18:29;;;;;;;4.38;2.40;;;32.10;99.90;;;;;;5035674;28;20035;-82
2022/05/31 12:21:09;;;;;;;9.10;2.55;;;31.80;99.90;;;;;;5031459;28;20028;-82
2022/05/31 12:23:53;;;;;;;3.92;2.55;;;32.30;99.90;;;;;;5021246;28;20024;-82
2022/05/31 12:26:24;;;;;;;10.30;2.75;;;32.30;99.90;;;;;;5037493;28;20032;-82
2022/05/31 12:29:11;;;;;;;9.63;2.58;;;31.40;99.90;;;;;;5020516;28;20025;-81
2022/05/31 12:31:39;;;;;;;5.80;2.80;;;30.90;99.90;;;;;;5032702;28;20034;-81
2022/05/31 12:34:11;;;;;;;5.60;2.38;;;31.30;99.90;;;;;;5037453;28;20056;-81
2022/05/31 12:36:55;;;;;;;10.10;2.58;;;31.80;99.90;;;;;;5032346;28;20044;-81
2022/05/31 12:39:27;;;;;;;5.35;2.40;;;32.20;99.90;;;;;;5019554;28;20391;-81
2022/05/31 12:41:54;;;;;;;3.95;2.10;;;32.10;99.90;;;;;;5035591;28;20017;-80
2022/05/31 12:44:31;;;;;;;9.25;1.90;;;32.00;99.90;;;;;;5016597;28;20083;-81
2022/05/31 12:47:24;;;;;;;3.25;2.60;;;33.60;99.90;;;;;;5030894;28;20013;-81
2022/05/31 12:50:04;;;;;;;4.38;2.03;;;32.70;99.90;;;;;;5016275;28;20510;-81
2022/05/31 12:55:20;;;;;;;6.22;2.50;;;33.60;99.90;;;;;;5042436;28;20112;-80
2022/05/31 13:00:33;;;;;;;3.80;2.42;;;32.70;99.90;;;;;;5043373;28;20562;-80
2022/05/31 13:03:00;;;;;;;6.25;2.70;;;33.00;99.90;;;;;;5033330;28;20101;-81
2022/05/31 13:05:37;;;;;;;6.70;2.55;;;33.00;99.90;;;;;;5041988;28;20025;-80
2022/05/31 13:08:16;;;;;;;4.72;2.72;;;33.40;99.90;;;;;;5018502;28;20070;-80
2022/05/31 13:22:16;;;;;;;10.25;2.60;;;33.80;99.90;;;;;;5045406;28;20509;-82
2022/05/31 13:25:02;;;;;;;2.50;1.83;;;34.40;99.90;;;;;;5030503;28;20025;-81
2022/05/31 13:27:31;;;;;;;6.10;2.53;;;34.10;98.90;;;;;;5043783;28;20025;-80
2022/05/31 13:30:15;;;;;;;2.92;1.90;;;33.90;98.90;;;;;;5038494;28;20021;-80
2022/05/31 13:32:41;;;;;;;5.28;1.90;;;34.10;98.90;;;;;;5026829;28;20090;-83
2022/05/31 13:35:24;;;;;;;5.97;2.00;;;34.00;97.20;;;;;;5039698;28;20315;-80
2022/05/31 13:38:10;;;;;;;4.13;1.98;;;33.90;96.90;;;;;;5027550;28;20034;-82
2022/05/31 13:40:47;;;;;;;6.05;1.90;;;33.10;97.60;;;;;;5038026;28;20083;-80
2022/05/31 13:43:24;;;;;;;9.35;2.35;;;32.80;97.60;;;;;;5040348;28;20024;-82
2022/05/31 13:45:57;;;;;;;14.13;2.40;;;33.80;97.90;;;;;;5023261;28;20411;-81
2022/05/31 13:48:27;;;;;;;5.10;2.15;;;34.30;96.60;;;;;;5038938;28;20066;-82
2022/05/31 13:51:01;;;;;;;7.10;2.10;;;32.90;97.30;;;;;;5039768;28;20078;-81
2022/05/31 13:53:38;;;;;;;4.50;1.83;;;31.90;98.40;;;;;;5024680;28;20042;-81
2022/05/31 13:56:04;;;;;;;11.38;2.30;;;31.30;99.20;;;;;;5021285;28;20498;-80